Time;durP1;ratioP1;P1;durP2;ratioP2;P2;SDS_P1;SDS_P2;PMS_P1;PMS_P2;Temp;Humidity;BMP_temperature;BMP_pressure;BME280_temperature;BME280_humidity;BME280_pressure;Samples;Min_cycle;Max_cycle;Signal;HPM_P1;HPM_P2
2020/12/17 00:08:10;;;;;;;9.18;3.65;;;9.80;99.90;;;;;;6693445;88;20714;-76
2020/12/17 00:18:10;;;;;;;7.68;4.70;;;9.80;99.90;;;;;;6690954;88;20743;-77
2020/12/17 00:28:11;;;;;;;7.43;4.15;;;10.00;99.90;;;;;;6689995;88;20253;-77
2020/12/17 00:38:11;;;;;;;6.15;4.18;;;10.00;99.90;;;;;;6693332;88;20195;-76
2020/12/17 00:48:12;;;;;;;6.85;3.60;;;10.00;99.90;;;;;;6696354;88;20190;-76
2020/12/17 00:58:12;;;;;;;5.72;3.72;;;10.10;99.90;;;;;;6672253;88;20202;-76
2020/12/17 01:08:13;;;;;;;8.00;4.20;;;10.00;99.90;;;;;;6702188;88;20197;-76
2020/12/17 01:18:13;;;;;;;7.60;3.75;;;10.00;99.90;;;;;;6692874;88;20241;-77
2020/12/17 01:28:14;;;;;;;7.30;4.15;;;10.00;99.90;;;;;;6703105;88;20244;-76
2020/12/17 01:38:14;;;;;;;7.37;3.87;;;9.90;99.90;;;;;;6704217;88;20319;-76
2020/12/17 01:48:17;;;;;;;6.82;4.30;;;9.90;99.90;;;;;;6696545;88;20199;-76
2020/12/17 01:58:26;;;;;;;6.60;4.00;;;9.90;99.90;;;;;;6706141;88;20754;-77
2020/12/17 02:08:34;;;;;;;6.80;4.12;;;9.80;99.90;;;;;;6707297;88;20282;-76
2020/12/17 02:18:35;;;;;;;7.85;3.90;;;9.80;99.90;;;;;;6707764;88;20740;-77
2020/12/17 02:28:36;;;;;;;8.63;4.18;;;9.70;99.90;;;;;;6705790;88;20378;-76
2020/12/17 02:38:42;;;;;;;8.40;3.90;;;9.70;99.90;;;;;;6704172;88;20211;-76
2020/12/17 02:48:43;;;;;;;8.90;4.18;;;9.80;99.90;;;;;;6689330;88;20194;-76
2020/12/17 02:58:44;;;;;;;9.23;4.28;;;9.70;99.90;;;;;;6698041;88;20275;-77
2020/12/17 03:08:44;;;;;;;7.85;4.15;;;9.70;99.90;;;;;;6697450;88;20335;-77
2020/12/17 03:18:45;;;;;;;7.15;4.45;;;9.60;99.90;;;;;;6662522;88;20197;-76
2020/12/17 03:28:45;;;;;;;7.72;4.30;;;9.50;99.90;;;;;;6704817;88;20207;-77
2020/12/17 03:38:46;;;;;;;9.23;4.78;;;9.50;99.90;;;;;;6705172;88;20186;-78
2020/12/17 03:48:46;;;;;;;7.62;4.20;;;9.50;99.90;;;;;;6694444;88;20230;-76
2020/12/17 03:58:47;;;;;;;7.87;4.37;;;9.50;99.90;;;;;;6693048;88;20182;-76
2020/12/17 04:08:47;;;;;;;8.80;4.05;;;9.40;99.90;;;;;;6698607;88;20295;-77
2020/12/17 04:18:48;;;;;;;6.20;3.78;;;9.40;99.90;;;;;;6698061;88;20210;-77
2020/12/17 04:28:48;;;;;;;7.43;4.15;;;9.40;99.90;;;;;;6691914;88;20196;-76
2020/12/17 04:38:49;;;;;;;5.65;3.35;;;9.40;99.90;;;;;;6686828;88;20285;-77
2020/12/17 04:48:52;;;;;;;7.45;3.42;;;9.50;99.90;;;;;;6695047;88;20242;-77
2020/12/17 04:58:58;;;;;;;12.68;4.40;;;9.30;99.90;;;;;;6697560;88;20208;-77
2020/12/17 05:08:59;;;;;;;6.90;3.60;;;9.50;99.90;;;;;;6703580;88;20249;-78
2020/12/17 05:19:03;;;;;;;7.27;3.53;;;9.40;99.90;;;;;;6704444;88;20242;-76
2020/12/17 05:29:03;;;;;;;7.03;3.70;;;9.50;99.90;;;;;;6711290;88;20484;-76
2020/12/17 05:39:10;;;;;;;6.17;3.53;;;9.60;99.90;;;;;;6698181;88;20211;-76
2020/12/17 05:49:17;;;;;;;7.20;3.20;;;9.80;99.90;;;;;;6702067;88;20665;-76
2020/12/17 05:59:23;;;;;;;5.15;2.92;;;10.20;99.90;;;;;;6700923;88;20311;-76
2020/12/17 06:09:30;;;;;;;6.47;2.70;;;10.40;99.90;;;;;;6693432;88;20220;-76
2020/12/17 06:19:35;;;;;;;6.82;2.72;;;10.50;99.90;;;;;;6701937;88;20201;-76
2020/12/17 06:29:49;;;;;;;5.50;2.67;;;10.60;99.90;;;;;;6698401;88;20330;-77
2020/12/17 06:39:50;;;;;;;5.50;2.70;;;10.60;99.90;;;;;;6694067;88;20199;-77
2020/12/17 06:49:51;;;;;;;4.75;2.40;;;10.70;99.90;;;;;;6690866;88;20210;-76
2020/12/17 07:00:08;;;;;;;6.18;2.53;;;10.70;99.90;;;;;;6697251;88;20186;-76
2020/12/17 07:10:25;;;;;;;7.12;2.72;;;10.60;99.90;;;;;;6698006;88;20664;-76
2020/12/17 07:20:30;;;;;;;4.75;2.55;;;10.60;99.90;;;;;;6695027;88;20190;-76
2020/12/17 07:30:30;;;;;;;6.50;2.83;;;10.60;99.90;;;;;;6697172;88;21039;-77
2020/12/17 07:40:39;;;;;;;6.78;2.87;;;10.40;99.90;;;;;;6694654;88;20253;-77
2020/12/17 07:50:39;;;;;;;5.78;2.53;;;10.30;99.90;;;;;;6700699;88;20179;-76
2020/12/17 08:00:40;;;;;;;5.35;2.87;;;10.20;99.90;;;;;;6636345;88;20212;-76
2020/12/17 08:10:40;;;;;;;5.78;3.00;;;10.10;99.90;;;;;;6699417;88;20222;-77
2020/12/17 08:20:41;;;;;;;4.37;2.90;;;9.90;99.90;;;;;;6690748;88;20690;-77
2020/12/17 08:30:41;;;;;;;7.10;2.80;;;10.10;99.90;;;;;;6699871;88;20249;-78
2020/12/17 08:40:43;;;;;;;4.70;2.60;;;9.90;99.90;;;;;;6704362;88;20504;-78
2020/12/17 08:50:45;;;;;;;4.95;2.35;;;9.90;99.90;;;;;;6698701;88;20326;-78
2020/12/17 09:00:45;;;;;;;4.85;2.22;;;9.90;99.90;;;;;;6709643;88;20953;-79
2020/12/17 09:10:48;;;;;;;6.15;2.05;;;9.90;99.90;;;;;;6694273;88;20203;-78
2020/12/17 09:21:05;;;;;;;3.92;1.92;;;10.10;99.90;;;;;;6692241;88;20650;-78
2020/12/17 09:31:19;;;;;;;4.35;2.30;;;10.10;99.90;;;;;;6697943;88;20180;-78
2020/12/17 09:41:19;;;;;;;4.05;2.30;;;10.00;99.90;;;;;;6701636;88;20960;-78
2020/12/17 09:51:21;;;;;;;3.37;2.00;;;10.10;99.90;;;;;;6673594;88;20182;-78
2020/12/17 10:01:22;;;;;;;3.35;1.70;;;10.30;99.90;;;;;;6712763;88;20968;-79
2020/12/17 10:11:22;;;;;;;3.05;1.70;;;10.50;99.90;;;;;;6691332;88;20359;-77
2020/12/17 10:21:23;;;;;;;2.78;1.50;;;10.80;99.90;;;;;;6702712;88;20202;-77
2020/12/17 10:31:23;;;;;;;2.15;1.00;;;12.20;99.90;;;;;;6685786;88;20191;-77
2020/12/17 10:41:26;;;;;;;3.22;1.27;;;13.20;99.90;;;;;;6702806;88;20213;-76
2020/12/17 10:51:27;;;;;;;1.10;0.60;;;13.30;99.90;;;;;;6697138;88;20174;-78
2020/12/17 11:01:27;;;;;;;1.12;0.50;;;13.30;99.90;;;;;;6672101;88;20219;-79
2020/12/17 11:11:28;;;;;;;1.83;0.60;;;13.60;99.90;;;;;;6708490;88;20521;-78
2020/12/17 11:21:28;;;;;;;2.42;0.52;;;13.70;99.90;;;;;;6701343;88;20337;-77
2020/12/17 11:31:29;;;;;;;1.45;0.60;;;13.80;99.90;;;;;;6687536;88;20194;-77
2020/12/17 11:41:29;;;;;;;1.92;0.50;;;13.90;99.90;;;;;;6688572;88;20215;-77
2020/12/17 11:51:30;;;;;;;1.85;0.60;;;13.60;99.90;;;;;;6688631;88;20568;-75
2020/12/17 12:01:31;;;;;;;2.40;0.90;;;13.50;99.90;;;;;;6694111;88;20182;-76
2020/12/17 12:11:32;;;;;;;2.53;0.60;;;14.20;99.90;;;;;;6700747;88;20210;-75
2020/12/17 12:21:33;;;;;;;2.00;0.70;;;13.90;99.90;;;;;;6684704;88;20222;-74
2020/12/17 12:31:34;;;;;;;3.50;0.65;;;14.20;99.90;;;;;;6691092;88;20178;-74
2020/12/17 12:41:34;;;;;;;2.80;0.90;;;14.10;99.90;;;;;;6687570;88;20665;-76
2020/12/17 12:51:35;;;;;;;2.17;0.80;;;15.00;99.90;;;;;;6688376;88;20509;-76
2020/12/17 13:01:37;;;;;;;2.90;0.70;;;16.70;98.20;;;;;;6688138;88;20231;-76
2020/12/17 13:11:37;;;;;;;1.75;0.60;;;16.60;98.20;;;;;;6692181;88;20240;-77
2020/12/17 13:21:38;;;;;;;2.12;0.70;;;16.80;97.20;;;;;;6701447;88;20210;-76
2020/12/17 13:31:38;;;;;;;2.85;0.70;;;17.20;95.00;;;;;;6687512;88;20195;-74
2020/12/17 13:41:39;;;;;;;2.20;0.57;;;16.00;97.20;;;;;;6691357;88;20198;-75
2020/12/17 13:51:40;;;;;;;3.85;0.80;;;15.20;98.40;;;;;;6685810;88;20222;-75
2020/12/17 14:01:40;;;;;;;2.75;0.90;;;14.80;99.00;;;;;;6689831;88;20249;-75
2020/12/17 14:11:41;;;;;;;2.47;0.80;;;14.70;99.70;;;;;;6688155;88;20370;-75
2020/12/17 14:21:42;;;;;;;2.45;0.80;;;14.40;99.80;;;;;;6690279;88;20241;-77
2020/12/17 14:31:44;;;;;;;2.70;0.70;;;14.90;99.90;;;;;;6698565;88;20305;-76
2020/12/17 14:41:44;;;;;;;2.75;0.80;;;14.00;99.90;;;;;;6699018;88;20186;-76
2020/12/17 14:51:45;;;;;;;2.80;0.60;;;13.60;99.90;;;;;;6701515;88;20725;-75
2020/12/17 15:01:56;;;;;;;4.95;0.80;;;12.90;99.90;;;;;;6695971;88;20393;-75
2020/12/17 15:11:56;;;;;;;2.95;0.70;;;12.20;99.90;;;;;;6681464;88;20370;-77
2020/12/17 15:21:57;;;;;;;4.18;1.00;;;11.90;99.90;;;;;;6704431;88;20789;-78
2020/12/17 15:31:57;;;;;;;6.00;0.80;;;11.50;99.90;;;;;;6702643;88;20271;-77
2020/12/17 15:41:58;;;;;;;3.80;0.80;;;11.30;99.90;;;;;;6718018;88;20353;-79
2020/12/17 15:51:58;;;;;;;4.35;0.80;;;10.90;99.90;;;;;;6715195;88;20204;-78
2020/12/17 16:01:59;;;;;;;4.10;0.87;;;10.80;99.90;;;;;;6719030;88;20203;-78
2020/12/17 16:12:00;;;;;;;5.12;1.30;;;10.60;99.90;;;;;;6705376;88;20552;-78
2020/12/17 16:22:00;;;;;;;4.55;1.30;;;10.20;99.90;;;;;;6703785;88;20560;-80
2020/12/17 16:32:06;;;;;;;7.78;2.10;;;10.10;99.90;;;;;;6709103;88;20202;-79
2020/12/17 16:42:07;;;;;;;7.18;2.35;;;9.70;99.90;;;;;;6707924;88;20204;-78
2020/12/17 16:52:07;;;;;;;8.85;2.60;;;9.20;99.90;;;;;;6675202;89;20199;-77
2020/12/17 17:02:09;;;;;;;7.47;2.00;;;8.80;99.90;;;;;;6711886;88;20213;-78
2020/12/17 17:12:11;;;;;;;8.45;2.60;;;8.40;99.90;;;;;;6698349;88;20654;-79
2020/12/17 17:22:12;;;;;;;6.25;3.47;;;8.30;99.90;;;;;;6690770;88;20195;-78
2020/12/17 17:32:13;;;;;;;7.55;4.40;;;8.10;99.90;;;;;;6705092;88;20190;-78
2020/12/17 17:42:13;;;;;;;7.12;3.05;;;8.00;99.90;;;;;;6715087;88;20341;-76
2020/12/17 17:52:14;;;;;;;3.17;1.90;;;8.00;99.90;;;;;;6716622;88;20194;-80
2020/12/17 18:02:15;;;;;;;6.40;2.92;;;7.70;99.90;;;;;;6693819;88;20206;-79
2020/12/17 18:12:15;;;;;;;6.10;2.08;;;7.40;99.90;;;;;;6697566;88;20233;-78
2020/12/17 18:22:16;;;;;;;4.72;1.83;;;7.60;99.90;;;;;;6713888;88;20608;-80
2020/12/17 18:32:16;;;;;;;5.47;2.75;;;7.50;99.90;;;;;;6705035;88;20202;-78
2020/12/17 18:42:17;;;;;;;7.30;2.05;;;7.60;99.90;;;;;;6705154;88;20671;-78
2020/12/17 19:03:20;;;;;;;11.18;4.30;;;7.90;99.90;;;;;;6728191;88;20185;-75
2020/12/17 19:13:20;;;;;;;5.67;3.27;;;7.90;99.90;;;;;;6721013;88;20193;-77
2020/12/17 19:23:21;;;;;;;6.40;2.77;;;8.10;99.90;;;;;;6724371;88;20547;-77
2020/12/17 19:33:21;;;;;;;6.70;2.85;;;8.40;99.90;;;;;;6718535;88;20529;-77
2020/12/17 19:43:22;;;;;;;7.12;3.22;;;8.20;99.90;;;;;;6701082;88;20197;-77
2020/12/17 19:53:22;;;;;;;8.50;3.60;;;8.00;99.90;;;;;;6729202;88;20265;-78
2020/12/17 20:03:23;;;;;;;8.50;2.53;;;7.90;99.90;;;;;;6729229;88;20214;-77
2020/12/17 20:13:25;;;;;;;5.97;2.33;;;7.90;99.90;;;;;;6723158;88;20251;-77
2020/12/17 20:23:28;;;;;;;7.78;2.12;;;7.90;99.90;;;;;;6693271;89;20199;-77
2020/12/17 20:33:29;;;;;;;4.90;2.05;;;7.80;99.90;;;;;;6692173;88;21049;-78
2020/12/17 20:43:30;;;;;;;5.15;2.70;;;7.70;99.90;;;;;;6696881;88;20195;-77
2020/12/17 20:53:30;;;;;;;6.62;2.62;;;7.40;99.90;;;;;;6718830;88;20353;-77
2020/12/17 21:03:31;;;;;;;5.25;2.58;;;7.40;99.90;;;;;;6728437;88;20648;-76
2020/12/17 21:13:32;;;;;;;9.50;2.85;;;7.10;99.90;;;;;;6661327;88;20208;-77
2020/12/17 21:23:33;;;;;;;7.37;2.70;;;7.10;99.90;;;;;;6729050;88;20218;-77
2020/12/17 21:33:33;;;;;;;7.03;3.03;;;7.10;99.90;;;;;;6729495;88;20325;-77
2020/12/17 21:43:34;;;;;;;7.47;3.13;;;7.10;99.90;;;;;;6731258;88;20243;-77
2020/12/17 21:53:35;;;;;;;6.15;2.60;;;7.20;99.90;;;;;;6728743;88;20568;-76
2020/12/17 22:03:35;;;;;;;7.87;2.80;;;7.20;99.90;;;;;;6728578;88;20215;-76
2020/12/17 22:13:36;;;;;;;9.10;3.22;;;7.10;99.90;;;;;;6721593;88;20212;-77
2020/12/17 22:23:37;;;;;;;8.88;2.80;;;6.90;99.90;;;;;;6726561;88;20219;-76
2020/12/17 22:33:37;;;;;;;6.85;2.85;;;6.70;99.90;;;;;;6712105;88;20504;-76
2020/12/17 22:43:40;;;;;;;10.75;2.92;;;6.90;99.90;;;;;;6731645;88;20976;-76
2020/12/17 22:53:40;;;;;;;7.10;3.00;;;6.70;99.90;;;;;;6721592;88;20389;-76
2020/12/17 23:03:41;;;;;;;9.55;3.10;;;6.70;99.90;;;;;;6717459;88;20955;-76
2020/12/17 23:13:42;;;;;;;10.52;3.72;;;6.60;99.90;;;;;;6713039;88;20623;-78
2020/12/17 23:23:42;;;;;;;7.30;3.40;;;6.70;99.90;;;;;;6733171;88;20270;-77
2020/12/17 23:33:45;;;;;;;12.43;3.70;;;6.60;99.90;;;;;;6723340;88;20194;-77
2020/12/17 23:43:46;;;;;;;11.15;3.50;;;6.50;99.90;;;;;;6707166;88;20174;-77
2020/12/17 23:53:48;;;;;;;9.38;3.75;;;6.20;99.90;;;;;;6721943;88;20220;-77
